sensor_id;sensor_type;location;lat;lon;timestamp;P1;P2;P0
51258;PMS7003;37327;54.254;18.504;2023-02-15T00:01:11;9;8;7
51258;PMS7003;37327;54.254;18.504;2023-02-15T00:04:19;5;5;3
51258;PMS7003;37327;54.254;18.504;2023-02-15T00:07:27;8;7;6
51258;PMS7003;37327;54.254;18.504;2023-02-15T00:10:34;8;6;4
51258;PMS7003;37327;54.254;18.504;2023-02-15T00:13:41;12;9;7
51258;PMS7003;37327;54.254;18.504;2023-02-15T00:16:49;8;7;6
51258;PMS7003;37327;54.254;18.504;2023-02-15T00:19:58;6;5;5
51258;PMS7003;37327;54.254;18.504;2023-02-15T00:23:05;10;9;8
51258;PMS7003;37327;54.254;18.504;2023-02-15T00:26:15;5;4;3
51258;PMS7003;37327;54.254;18.504;2023-02-15T00:29:21;7;6;6
51258;PMS7003;37327;54.254;18.504;2023-02-15T00:32:28;7;7;6
51258;PMS7003;37327;54.254;18.504;2023-02-15T00:35:35;9;7;7
51258;PMS7003;37327;54.254;18.504;2023-02-15T00:38:42;7;6;5
51258;PMS7003;37327;54.254;18.504;2023-02-15T00:41:49;9;5;5
51258;PMS7003;37327;54.254;18.504;2023-02-15T00:44:57;6;5;3
51258;PMS7003;37327;54.254;18.504;2023-02-15T00:48:03;9;6;5
51258;PMS7003;37327;54.254;18.504;2023-02-15T00:51:11;6;5;4
51258;PMS7003;37327;54.254;18.504;2023-02-15T00:54:18;6;6;5
51258;PMS7003;37327;54.254;18.504;2023-02-15T00:57:25;6;4;3
51258;PMS7003;37327;54.254;18.504;2023-02-15T01:00:32;4;4;3
51258;PMS7003;37327;54.254;18.504;2023-02-15T01:03:39;6;5;4
51258;PMS7003;37327;54.254;18.504;2023-02-15T01:06:49;6;5;4
51258;PMS7003;37327;54.254;18.504;2023-02-15T01:09:56;7;6;5
51258;PMS7003;37327;54.254;18.504;2023-02-15T01:13:02;1;1;0
51258;PMS7003;37327;54.254;18.504;2023-02-15T01:16:10;5;5;4
51258;PMS7003;37327;54.254;18.504;2023-02-15T01:19:16;6;5;5
51258;PMS7003;37327;54.254;18.504;2023-02-15T01:22:23;4;4;3
51258;PMS7003;37327;54.254;18.504;2023-02-15T01:25:32;4;3;3
51258;PMS7003;37327;54.254;18.504;2023-02-15T01:28:40;5;4;3
51258;PMS7003;37327;54.254;18.504;2023-02-15T01:31:48;6;5;5
51258;PMS7003;37327;54.254;18.504;2023-02-15T01:34:55;9;6;6
51258;PMS7003;37327;54.254;18.504;2023-02-15T01:38:02;7;7;5
51258;PMS7003;37327;54.254;18.504;2023-02-15T01:41:09;9;6;5
51258;PMS7003;37327;54.254;18.504;2023-02-15T01:47:47;5;4;4
51258;PMS7003;37327;54.254;18.504;2023-02-15T01:51:00;9;9;8
51258;PMS7003;37327;54.254;18.504;2023-02-15T01:54:14;10;7;6
51258;PMS7003;37327;54.254;18.504;2023-02-15T01:57:31;6;6;5
51258;PMS7003;37327;54.254;18.504;2023-02-15T02:00:39;9;4;4
51258;PMS7003;37327;54.254;18.504;2023-02-15T02:07:07;6;4;3
51258;PMS7003;37327;54.254;18.504;2023-02-15T02:10:17;6;4;3
51258;PMS7003;37327;54.254;18.504;2023-02-15T02:13:26;6;5;5
51258;PMS7003;37327;54.254;18.504;2023-02-15T02:16:39;8;5;5
51258;PMS7003;37327;54.254;18.504;2023-02-15T02:36:34;10;8;7
51258;PMS7003;37327;54.254;18.504;2023-02-15T02:39:51;8;8;6
51258;PMS7003;37327;54.254;18.504;2023-02-15T02:43:09;8;6;5
51258;PMS7003;37327;54.254;18.504;2023-02-15T02:49:41;12;10;7
51258;PMS7003;37327;54.254;18.504;2023-02-15T02:52:50;9;9;7
51258;PMS7003;37327;54.254;18.504;2023-02-15T02:59:20;13;8;7
51258;PMS7003;37327;54.254;18.504;2023-02-15T03:02:37;9;8;7
51258;PMS7003;37327;54.254;18.504;2023-02-15T03:05:50;9;9;7
51258;PMS7003;37327;54.254;18.504;2023-02-15T03:09:05;10;8;8
51258;PMS7003;37327;54.254;18.504;2023-02-15T03:12:21;9;8;7
51258;PMS7003;37327;54.254;18.504;2023-02-15T03:15:35;9;9;7
51258;PMS7003;37327;54.254;18.504;2023-02-15T03:22:19;9;8;6
51258;PMS7003;37327;54.254;18.504;2023-02-15T03:25:35;8;8;5
51258;PMS7003;37327;54.254;18.504;2023-02-15T03:28:49;7;7;6
51258;PMS7003;37327;54.254;18.504;2023-02-15T03:32:00;8;8;7
51258;PMS7003;37327;54.254;18.504;2023-02-15T03:35:11;5;5;3
51258;PMS7003;37327;54.254;18.504;2023-02-15T03:38:20;7;7;6
51258;PMS7003;37327;54.254;18.504;2023-02-15T03:41:35;10;9;7
51258;PMS7003;37327;54.254;18.504;2023-02-15T03:48:11;8;7;6
51258;PMS7003;37327;54.254;18.504;2023-02-15T03:51:19;8;7;6
51258;PMS7003;37327;54.254;18.504;2023-02-15T03:54:41;5;5;5
51258;PMS7003;37327;54.254;18.504;2023-02-15T03:57:53;9;7;6
51258;PMS7003;37327;54.254;18.504;2023-02-15T04:01:21;9;7;7
51258;PMS7003;37327;54.254;18.504;2023-02-15T04:04:47;7;6;5
51258;PMS7003;37327;54.254;18.504;2023-02-15T04:07:54;10;8;6
51258;PMS7003;37327;54.254;18.504;2023-02-15T04:11:01;13;11;9
51258;PMS7003;37327;54.254;18.504;2023-02-15T04:14:08;8;8;7
51258;PMS7003;37327;54.254;18.504;2023-02-15T04:17:27;8;8;6
51258;PMS7003;37327;54.254;18.504;2023-02-15T04:20:34;8;7;6
51258;PMS7003;37327;54.254;18.504;2023-02-15T04:23:54;7;6;5
51258;PMS7003;37327;54.254;18.504;2023-02-15T04:27:12;8;6;6
51258;PMS7003;37327;54.254;18.504;2023-02-15T04:30:20;6;5;4
51258;PMS7003;37327;54.254;18.504;2023-02-15T04:33:30;7;6;5
51258;PMS7003;37327;54.254;18.504;2023-02-15T04:36:37;8;7;6
51258;PMS7003;37327;54.254;18.504;2023-02-15T04:39:45;8;6;5
51258;PMS7003;37327;54.254;18.504;2023-02-15T04:42:52;8;6;5
51258;PMS7003;37327;54.254;18.504;2023-02-15T04:45:58;11;9;8
51258;PMS7003;37327;54.254;18.504;2023-02-15T04:49:06;11;8;7
51258;PMS7003;37327;54.254;18.504;2023-02-15T04:52:14;8;7;6
51258;PMS7003;37327;54.254;18.504;2023-02-15T04:55:23;8;6;6
51258;PMS7003;37327;54.254;18.504;2023-02-15T04:58:30;14;7;6
51258;PMS7003;37327;54.254;18.504;2023-02-15T05:01:37;13;11;9
51258;PMS7003;37327;54.254;18.504;2023-02-15T05:04:43;11;9;7
51258;PMS7003;37327;54.254;18.504;2023-02-15T05:07:50;10;9;8
51258;PMS7003;37327;54.254;18.504;2023-02-15T05:10:57;13;10;9
51258;PMS7003;37327;54.254;18.504;2023-02-15T05:14:04;12;8;7
51258;PMS7003;37327;54.254;18.504;2023-02-15T05:17:11;11;7;5
51258;PMS7003;37327;54.254;18.504;2023-02-15T05:20:18;10;8;7
51258;PMS7003;37327;54.254;18.504;2023-02-15T05:23:25;9;8;7
51258;PMS7003;37327;54.254;18.504;2023-02-15T05:26:33;10;8;7
51258;PMS7003;37327;54.254;18.504;2023-02-15T05:29:51;11;8;6
51258;PMS7003;37327;54.254;18.504;2023-02-15T05:32:58;7;6;6
51258;PMS7003;37327;54.254;18.504;2023-02-15T05:36:06;7;6;6
51258;PMS7003;37327;54.254;18.504;2023-02-15T05:39:14;12;10;8
51258;PMS7003;37327;54.254;18.504;2023-02-15T05:42:21;6;6;6
51258;PMS7003;37327;54.254;18.504;2023-02-15T05:45:27;9;9;7
51258;PMS7003;37327;54.254;18.504;2023-02-15T05:48:35;10;8;7
51258;PMS7003;37327;54.254;18.504;2023-02-15T05:51:42;14;11;8
51258;PMS7003;37327;54.254;18.504;2023-02-15T05:54:49;7;6;5
51258;PMS7003;37327;54.254;18.504;2023-02-15T05:57:56;11;10;8
51258;PMS7003;37327;54.254;18.504;2023-02-15T06:04:17;14;10;7
51258;PMS7003;37327;54.254;18.504;2023-02-15T06:07:24;12;11;8
51258;PMS7003;37327;54.254;18.504;2023-02-15T06:10:31;11;9;8
51258;PMS7003;37327;54.254;18.504;2023-02-15T06:13:38;9;7;6
51258;PMS7003;37327;54.254;18.504;2023-02-15T06:16:44;9;9;7
51258;PMS7003;37327;54.254;18.504;2023-02-15T06:19:51;14;12;10
51258;PMS7003;37327;54.254;18.504;2023-02-15T06:22:58;14;9;7
51258;PMS7003;37327;54.254;18.504;2023-02-15T06:26:05;10;8;7
51258;PMS7003;37327;54.254;18.504;2023-02-15T06:29:12;11;10;8
51258;PMS7003;37327;54.254;18.504;2023-02-15T06:32:18;8;7;7
51258;PMS7003;37327;54.254;18.504;2023-02-15T06:35:26;12;10;8
51258;PMS7003;37327;54.254;18.504;2023-02-15T06:38:33;14;10;8
51258;PMS7003;37327;54.254;18.504;2023-02-15T06:41:40;11;9;7
51258;PMS7003;37327;54.254;18.504;2023-02-15T06:44:48;8;8;6
51258;PMS7003;37327;54.254;18.504;2023-02-15T06:47:55;12;10;8
51258;PMS7003;37327;54.254;18.504;2023-02-15T06:51:03;12;8;7
51258;PMS7003;37327;54.254;18.504;2023-02-15T06:54:10;13;9;7
51258;PMS7003;37327;54.254;18.504;2023-02-15T06:57:17;10;9;7
51258;PMS7003;37327;54.254;18.504;2023-02-15T07:00:24;11;9;7
51258;PMS7003;37327;54.254;18.504;2023-02-15T07:03:32;13;12;10
51258;PMS7003;37327;54.254;18.504;2023-02-15T07:06:40;9;9;7
51258;PMS7003;37327;54.254;18.504;2023-02-15T07:09:47;10;9;8
51258;PMS7003;37327;54.254;18.504;2023-02-15T07:12:54;11;10;8
51258;PMS7003;37327;54.254;18.504;2023-02-15T07:16:01;17;12;8
51258;PMS7003;37327;54.254;18.504;2023-02-15T07:19:08;5;4;2
51258;PMS7003;37327;54.254;18.504;2023-02-15T07:22:15;13;11;9
51258;PMS7003;37327;54.254;18.504;2023-02-15T07:25:22;9;7;4
51258;PMS7003;37327;54.254;18.504;2023-02-15T07:28:29;7;4;2
51258;PMS7003;37327;54.254;18.504;2023-02-15T07:31:36;12;11;8
51258;PMS7003;37327;54.254;18.504;2023-02-15T07:34:43;12;11;9
51258;PMS7003;37327;54.254;18.504;2023-02-15T07:37:50;12;11;10
51258;PMS7003;37327;54.254;18.504;2023-02-15T07:40:59;13;11;9
51258;PMS7003;37327;54.254;18.504;2023-02-15T07:44:10;9;9;8
51258;PMS7003;37327;54.254;18.504;2023-02-15T07:47:19;10;10;6
51258;PMS7003;37327;54.254;18.504;2023-02-15T07:50:26;20;14;10
51258;PMS7003;37327;54.254;18.504;2023-02-15T07:53:34;14;13;10
51258;PMS7003;37327;54.254;18.504;2023-02-15T07:56:42;14;13;10
51258;PMS7003;37327;54.254;18.504;2023-02-15T07:59:49;17;15;11
51258;PMS7003;37327;54.254;18.504;2023-02-15T08:02:56;13;12;9
51258;PMS7003;37327;54.254;18.504;2023-02-15T08:06:15;15;13;10
51258;PMS7003;37327;54.254;18.504;2023-02-15T08:09:22;11;10;8
51258;PMS7003;37327;54.254;18.504;2023-02-15T08:12:29;11;11;9
51258;PMS7003;37327;54.254;18.504;2023-02-15T08:15:36;11;10;9
51258;PMS7003;37327;54.254;18.504;2023-02-15T08:18:43;11;11;8
51258;PMS7003;37327;54.254;18.504;2023-02-15T08:21:51;11;10;9
51258;PMS7003;37327;54.254;18.504;2023-02-15T08:25:06;8;7;6
51258;PMS7003;37327;54.254;18.504;2023-02-15T08:28:13;12;11;9
51258;PMS7003;37327;54.254;18.504;2023-02-15T08:31:20;11;10;8
51258;PMS7003;37327;54.254;18.504;2023-02-15T08:34:28;14;12;9
51258;PMS7003;37327;54.254;18.504;2023-02-15T08:37:36;7;6;3
51258;PMS7003;37327;54.254;18.504;2023-02-15T08:40:43;12;9;7
51258;PMS7003;37327;54.254;18.504;2023-02-15T08:43:54;9;9;7
51258;PMS7003;37327;54.254;18.504;2023-02-15T08:47:03;9;8;7
51258;PMS7003;37327;54.254;18.504;2023-02-15T08:50:10;14;11;10
51258;PMS7003;37327;54.254;18.504;2023-02-15T08:53:16;14;10;9
51258;PMS7003;37327;54.254;18.504;2023-02-15T08:56:28;12;12;9
51258;PMS7003;37327;54.254;18.504;2023-02-15T08:59:37;10;10;8
51258;PMS7003;37327;54.254;18.504;2023-02-15T09:02:44;14;13;10
51258;PMS7003;37327;54.254;18.504;2023-02-15T09:05:53;14;11;10
51258;PMS7003;37327;54.254;18.504;2023-02-15T09:09:03;12;12;10
51258;PMS7003;37327;54.254;18.504;2023-02-15T09:12:11;14;14;10
51258;PMS7003;37327;54.254;18.504;2023-02-15T09:15:18;13;10;8
51258;PMS7003;37327;54.254;18.504;2023-02-15T09:18:25;13;11;8
51258;PMS7003;37327;54.254;18.504;2023-02-15T09:21:32;7;7;6
51258;PMS7003;37327;54.254;18.504;2023-02-15T09:24:42;12;11;8
51258;PMS7003;37327;54.254;18.504;2023-02-15T09:27:49;10;10;8
51258;PMS7003;37327;54.254;18.504;2023-02-15T09:30:55;9;8;7
51258;PMS7003;37327;54.254;18.504;2023-02-15T09:34:02;12;10;9
51258;PMS7003;37327;54.254;18.504;2023-02-15T09:37:10;8;7;7
51258;PMS7003;37327;54.254;18.504;2023-02-15T09:40:17;4;3;2
51258;PMS7003;37327;54.254;18.504;2023-02-15T09:46:56;11;11;8
51258;PMS7003;37327;54.254;18.504;2023-02-15T09:50:13;11;10;8
51258;PMS7003;37327;54.254;18.504;2023-02-15T10:00:16;10;9;7
51258;PMS7003;37327;54.254;18.504;2023-02-15T10:10:17;11;11;8
51258;PMS7003;37327;54.254;18.504;2023-02-15T10:13:29;14;10;8
51258;PMS7003;37327;54.254;18.504;2023-02-15T10:26:46;17;13;10
51258;PMS7003;37327;54.254;18.504;2023-02-15T10:30:03;12;11;8
51258;PMS7003;37327;54.254;18.504;2023-02-15T10:49:59;13;13;10
51258;PMS7003;37327;54.254;18.504;2023-02-15T10:56:36;18;17;13
51258;PMS7003;37327;54.254;18.504;2023-02-15T11:03:20;17;15;11
51258;PMS7003;37327;54.254;18.504;2023-02-15T11:06:32;18;15;12
51258;PMS7003;37327;54.254;18.504;2023-02-15T11:09:46;18;16;12
51258;PMS7003;37327;54.254;18.504;2023-02-15T11:12:57;22;18;12
51258;PMS7003;37327;54.254;18.504;2023-02-15T11:22:41;18;15;12
51258;PMS7003;37327;54.254;18.504;2023-02-15T11:32:30;18;18;12
51258;PMS7003;37327;54.254;18.504;2023-02-15T11:35:47;25;19;13
51258;PMS7003;37327;54.254;18.504;2023-02-15T11:39:01;18;18;14
51258;PMS7003;37327;54.254;18.504;2023-02-15T11:42:14;17;14;11
51258;PMS7003;37327;54.254;18.504;2023-02-15T11:45:29;17;17;14
51258;PMS7003;37327;54.254;18.504;2023-02-15T11:48:38;22;17;14
51258;PMS7003;37327;54.254;18.504;2023-02-15T11:51:45;20;18;12
51258;PMS7003;37327;54.254;18.504;2023-02-15T11:54:52;20;17;14
51258;PMS7003;37327;54.254;18.504;2023-02-15T12:01:20;17;16;12
51258;PMS7003;37327;54.254;18.504;2023-02-15T12:04:38;17;14;11
51258;PMS7003;37327;54.254;18.504;2023-02-15T12:07:56;21;16;13
51258;PMS7003;37327;54.254;18.504;2023-02-15T12:11:57;16;15;12
51258;PMS7003;37327;54.254;18.504;2023-02-15T12:14:30;21;17;12
51258;PMS7003;37327;54.254;18.504;2023-02-15T12:17:52;12;11;8
51258;PMS7003;37327;54.254;18.504;2023-02-15T12:21:02;19;16;13
51258;PMS7003;37327;54.254;18.504;2023-02-15T12:24:36;21;18;14
51258;PMS7003;37327;54.254;18.504;2023-02-15T12:27:30;22;17;14
51258;PMS7003;37327;54.254;18.504;2023-02-15T12:30:41;18;16;13
51258;PMS7003;37327;54.254;18.504;2023-02-15T12:33:50;20;20;15
51258;PMS7003;37327;54.254;18.504;2023-02-15T12:37:07;15;13;9
51258;PMS7003;37327;54.254;18.504;2023-02-15T12:40:21;19;15;11
51258;PMS7003;37327;54.254;18.504;2023-02-15T12:43:36;20;19;15
51258;PMS7003;37327;54.254;18.504;2023-02-15T12:47:06;21;18;15
51258;PMS7003;37327;54.254;18.504;2023-02-15T12:56:39;22;17;12
51258;PMS7003;37327;54.254;18.504;2023-02-15T13:03:03;19;17;13
51258;PMS7003;37327;54.254;18.504;2023-02-15T13:06:11;19;16;12
51258;PMS7003;37327;54.254;18.504;2023-02-15T13:12:37;20;17;14
51258;PMS7003;37327;54.254;18.504;2023-02-15T13:15:46;21;19;12
51258;PMS7003;37327;54.254;18.504;2023-02-15T13:18:56;21;15;12
51258;PMS7003;37327;54.254;18.504;2023-02-15T13:22:06;21;19;15
51258;PMS7003;37327;54.254;18.504;2023-02-15T13:25:27;19;17;13
51258;PMS7003;37327;54.254;18.504;2023-02-15T13:28:51;16;16;12
51258;PMS7003;37327;54.254;18.504;2023-02-15T13:32:24;18;18;12
51258;PMS7003;37327;54.254;18.504;2023-02-15T13:35:18;17;16;12
51258;PMS7003;37327;54.254;18.504;2023-02-15T13:41:47;16;16;12
51258;PMS7003;37327;54.254;18.504;2023-02-15T13:45:08;24;18;15
51258;PMS7003;37327;54.254;18.504;2023-02-15T14:08:18;26;19;15
51258;PMS7003;37327;54.254;18.504;2023-02-15T14:15:00;24;22;15
51258;PMS7003;37327;54.254;18.504;2023-02-15T14:21:32;21;19;14
51258;PMS7003;37327;54.254;18.504;2023-02-15T14:24:47;22;18;15
51258;PMS7003;37327;54.254;18.504;2023-02-15T14:31:28;18;17;13
51258;PMS7003;37327;54.254;18.504;2023-02-15T14:44:38;19;19;15
51258;PMS7003;37327;54.254;18.504;2023-02-15T14:48:01;24;18;12
51258;PMS7003;37327;54.254;18.504;2023-02-15T14:52:01;21;19;15
51258;PMS7003;37327;54.254;18.504;2023-02-15T15:01:07;28;20;16
51258;PMS7003;37327;54.254;18.504;2023-02-15T15:10:56;23;21;15
51258;PMS7003;37327;54.254;18.504;2023-02-15T15:20:54;19;15;13
51258;PMS7003;37327;54.254;18.504;2023-02-15T15:24:02;20;15;10
51258;PMS7003;37327;54.254;18.504;2023-02-15T15:47:05;19;19;13
51258;PMS7003;37327;54.254;18.504;2023-02-15T15:50:22;21;20;15
51258;PMS7003;37327;54.254;18.504;2023-02-15T15:53:29;17;17;15
51258;PMS7003;37327;54.254;18.504;2023-02-15T15:56:44;24;21;17
51258;PMS7003;37327;54.254;18.504;2023-02-15T15:59:56;28;24;18
51258;PMS7003;37327;54.254;18.504;2023-02-15T16:03:13;24;22;18
51258;PMS7003;37327;54.254;18.504;2023-02-15T16:06:31;20;18;14
51258;PMS7003;37327;54.254;18.504;2023-02-15T16:13:04;21;19;14
51258;PMS7003;37327;54.254;18.504;2023-02-15T16:16:13;24;23;17
51258;PMS7003;37327;54.254;18.504;2023-02-15T16:19:33;22;20;13
51258;PMS7003;37327;54.254;18.504;2023-02-15T16:22:45;23;20;15
51258;PMS7003;37327;54.254;18.504;2023-02-15T16:25:56;25;20;13
51258;PMS7003;37327;54.254;18.504;2023-02-15T16:29:17;19;16;12
51258;PMS7003;37327;54.254;18.504;2023-02-15T16:32:27;24;20;17
51258;PMS7003;37327;54.254;18.504;2023-02-15T16:35:35;20;19;15
51258;PMS7003;37327;54.254;18.504;2023-02-15T16:42:00;24;19;15
51258;PMS7003;37327;54.254;18.504;2023-02-15T16:45:16;28;21;15
51258;PMS7003;37327;54.254;18.504;2023-02-15T16:48:28;18;16;11
51258;PMS7003;37327;54.254;18.504;2023-02-15T16:51:36;22;19;14
51258;PMS7003;37327;54.254;18.504;2023-02-15T16:54:43;23;17;12
51258;PMS7003;37327;54.254;18.504;2023-02-15T16:57:50;25;22;16
51258;PMS7003;37327;54.254;18.504;2023-02-15T17:01:03;10;7;4
51258;PMS7003;37327;54.254;18.504;2023-02-15T17:07:32;21;18;14
51258;PMS7003;37327;54.254;18.504;2023-02-15T17:10:45;25;16;13
51258;PMS7003;37327;54.254;18.504;2023-02-15T17:17:20;28;20;14
51258;PMS7003;37327;54.254;18.504;2023-02-15T17:20:27;28;25;17
51258;PMS7003;37327;54.254;18.504;2023-02-15T17:23:40;27;22;15
51258;PMS7003;37327;54.254;18.504;2023-02-15T17:26:50;29;25;18
51258;PMS7003;37327;54.254;18.504;2023-02-15T17:30:24;38;31;21
51258;PMS7003;37327;54.254;18.504;2023-02-15T17:33:35;31;27;20
51258;PMS7003;37327;54.254;18.504;2023-02-15T17:43:22;32;28;19
51258;PMS7003;37327;54.254;18.504;2023-02-15T17:46:34;35;30;20
51258;PMS7003;37327;54.254;18.504;2023-02-15T17:49:43;41;34;21
51258;PMS7003;37327;54.254;18.504;2023-02-15T17:52:51;38;32;21
51258;PMS7003;37327;54.254;18.504;2023-02-15T17:55:59;30;29;18
51258;PMS7003;37327;54.254;18.504;2023-02-15T17:59:16;37;33;21
51258;PMS7003;37327;54.254;18.504;2023-02-15T18:02:23;33;28;17
51258;PMS7003;37327;54.254;18.504;2023-02-15T18:05:43;34;32;20
51258;PMS7003;37327;54.254;18.504;2023-02-15T18:09:02;41;36;22
51258;PMS7003;37327;54.254;18.504;2023-02-15T18:12:25;43;31;19
51258;PMS7003;37327;54.254;18.504;2023-02-15T18:15:36;40;35;21
51258;PMS7003;37327;54.254;18.504;2023-02-15T18:18:44;41;36;23
51258;PMS7003;37327;54.254;18.504;2023-02-15T18:21:51;39;35;23
51258;PMS7003;37327;54.254;18.504;2023-02-15T18:25:03;36;33;22
51258;PMS7003;37327;54.254;18.504;2023-02-15T18:28:11;28;21;15
51258;PMS7003;37327;54.254;18.504;2023-02-15T18:31:18;36;32;23
51258;PMS7003;37327;54.254;18.504;2023-02-15T18:34:29;41;34;22
51258;PMS7003;37327;54.254;18.504;2023-02-15T18:37:43;31;27;19
51258;PMS7003;37327;54.254;18.504;2023-02-15T18:40:51;40;33;23
51258;PMS7003;37327;54.254;18.504;2023-02-15T18:43:57;46;39;26
51258;PMS7003;37327;54.254;18.504;2023-02-15T18:47:04;41;33;24
51258;PMS7003;37327;54.254;18.504;2023-02-15T18:50:15;39;33;23
51258;PMS7003;37327;54.254;18.504;2023-02-15T18:53:24;39;32;21
51258;PMS7003;37327;54.254;18.504;2023-02-15T18:56:31;39;32;23
51258;PMS7003;37327;54.254;18.504;2023-02-15T18:59:39;40;34;20
51258;PMS7003;37327;54.254;18.504;2023-02-15T19:02:46;34;31;21
51258;PMS7003;37327;54.254;18.504;2023-02-15T19:05:53;39;35;22
51258;PMS7003;37327;54.254;18.504;2023-02-15T19:09:00;33;30;21
51258;PMS7003;37327;54.254;18.504;2023-02-15T19:12:08;36;33;22
51258;PMS7003;37327;54.254;18.504;2023-02-15T19:15:20;31;28;18
51258;PMS7003;37327;54.254;18.504;2023-02-15T19:18:28;43;35;23
51258;PMS7003;37327;54.254;18.504;2023-02-15T19:21:35;38;30;21
51258;PMS7003;37327;54.254;18.504;2023-02-15T19:24:44;38;34;24
51258;PMS7003;37327;54.254;18.504;2023-02-15T19:27:53;41;35;23
51258;PMS7003;37327;54.254;18.504;2023-02-15T19:31:01;35;31;19
51258;PMS7003;37327;54.254;18.504;2023-02-15T19:34:12;31;26;14
51258;PMS7003;37327;54.254;18.504;2023-02-15T19:37:25;39;37;23
51258;PMS7003;37327;54.254;18.504;2023-02-15T19:40:39;42;37;21
51258;PMS7003;37327;54.254;18.504;2023-02-15T19:43:47;45;38;24
51258;PMS7003;37327;54.254;18.504;2023-02-15T19:47:01;41;33;23
51258;PMS7003;37327;54.254;18.504;2023-02-15T19:50:15;39;34;24
51258;PMS7003;37327;54.254;18.504;2023-02-15T19:53:25;42;35;23
51258;PMS7003;37327;54.254;18.504;2023-02-15T19:56:33;41;34;24
51258;PMS7003;37327;54.254;18.504;2023-02-15T19:59:44;42;34;20
51258;PMS7003;37327;54.254;18.504;2023-02-15T20:02:51;36;31;19
51258;PMS7003;37327;54.254;18.504;2023-02-15T20:05:59;41;32;21
51258;PMS7003;37327;54.254;18.504;2023-02-15T20:09:09;37;32;19
51258;PMS7003;37327;54.254;18.504;2023-02-15T20:12:25;42;35;21
51258;PMS7003;37327;54.254;18.504;2023-02-15T20:15:34;48;35;22
51258;PMS7003;37327;54.254;18.504;2023-02-15T20:18:42;39;35;22
51258;PMS7003;37327;54.254;18.504;2023-02-15T20:21:57;48;39;25
51258;PMS7003;37327;54.254;18.504;2023-02-15T20:25:04;46;36;23
51258;PMS7003;37327;54.254;18.504;2023-02-15T20:31:26;44;38;22
51258;PMS7003;37327;54.254;18.504;2023-02-15T20:34:33;50;39;25
51258;PMS7003;37327;54.254;18.504;2023-02-15T20:37:40;41;31;19
51258;PMS7003;37327;54.254;18.504;2023-02-15T20:40:48;43;36;25
51258;PMS7003;37327;54.254;18.504;2023-02-15T20:47:26;43;38;24
51258;PMS7003;37327;54.254;18.504;2023-02-15T20:50:33;53;40;26
51258;PMS7003;37327;54.254;18.504;2023-02-15T20:53:40;42;37;24
51258;PMS7003;37327;54.254;18.504;2023-02-15T20:56:47;46;38;23
51258;PMS7003;37327;54.254;18.504;2023-02-15T20:59:55;47;41;25
51258;PMS7003;37327;54.254;18.504;2023-02-15T21:03:09;48;40;25
51258;PMS7003;37327;54.254;18.504;2023-02-15T21:06:17;40;36;24
51258;PMS7003;37327;54.254;18.504;2023-02-15T21:09:24;44;40;23
51258;PMS7003;37327;54.254;18.504;2023-02-15T21:12:31;42;37;22
51258;PMS7003;37327;54.254;18.504;2023-02-15T21:15:39;41;38;23
51258;PMS7003;37327;54.254;18.504;2023-02-15T21:18:46;45;38;25
51258;PMS7003;37327;54.254;18.504;2023-02-15T21:21:53;44;39;24
51258;PMS7003;37327;54.254;18.504;2023-02-15T21:25:00;43;39;24
51258;PMS7003;37327;54.254;18.504;2023-02-15T21:28:15;44;34;22
51258;PMS7003;37327;54.254;18.504;2023-02-15T21:31:24;46;39;25
51258;PMS7003;37327;54.254;18.504;2023-02-15T21:34:33;39;37;23
51258;PMS7003;37327;54.254;18.504;2023-02-15T21:37:41;38;31;21
51258;PMS7003;37327;54.254;18.504;2023-02-15T21:40:49;44;32;23
51258;PMS7003;37327;54.254;18.504;2023-02-15T21:43:56;50;41;24
51258;PMS7003;37327;54.254;18.504;2023-02-15T21:47:18;34;31;22
51258;PMS7003;37327;54.254;18.504;2023-02-15T21:52:02;51;43;24
51258;PMS7003;37327;54.254;18.504;2023-02-15T21:55:19;42;37;22
51258;PMS7003;37327;54.254;18.504;2023-02-15T21:58:27;44;36;25
51258;PMS7003;37327;54.254;18.504;2023-02-15T22:01:35;40;36;20
51258;PMS7003;37327;54.254;18.504;2023-02-15T22:04:42;50;40;26
51258;PMS7003;37327;54.254;18.504;2023-02-15T22:07:50;46;39;24
51258;PMS7003;37327;54.254;18.504;2023-02-15T22:10:56;44;38;24
51258;PMS7003;37327;54.254;18.504;2023-02-15T22:14:03;42;36;24
51258;PMS7003;37327;54.254;18.504;2023-02-15T22:17:14;46;37;24
51258;PMS7003;37327;54.254;18.504;2023-02-15T22:20:23;42;36;22
51258;PMS7003;37327;54.254;18.504;2023-02-15T22:23:30;39;33;20
51258;PMS7003;37327;54.254;18.504;2023-02-15T22:26:37;35;31;17
51258;PMS7003;37327;54.254;18.504;2023-02-15T22:29:44;45;38;25
51258;PMS7003;37327;54.254;18.504;2023-02-15T22:32:53;41;34;15
51258;PMS7003;37327;54.254;18.504;2023-02-15T22:36:01;47;38;24
51258;PMS7003;37327;54.254;18.504;2023-02-15T22:39:08;45;38;25
51258;PMS7003;37327;54.254;18.504;2023-02-15T22:42:18;46;38;24
51258;PMS7003;37327;54.254;18.504;2023-02-15T22:45:32;46;39;24
51258;PMS7003;37327;54.254;18.504;2023-02-15T22:48:41;57;40;25
51258;PMS7003;37327;54.254;18.504;2023-02-15T22:51:49;44;34;17
51258;PMS7003;37327;54.254;18.504;2023-02-15T22:54:56;49;39;23
51258;PMS7003;37327;54.254;18.504;2023-02-15T22:58:03;47;40;25
51258;PMS7003;37327;54.254;18.504;2023-02-15T23:01:22;49;38;24
51258;PMS7003;37327;54.254;18.504;2023-02-15T23:04:29;48;38;25
51258;PMS7003;37327;54.254;18.504;2023-02-15T23:07:35;46;35;25
51258;PMS7003;37327;54.254;18.504;2023-02-15T23:10:43;50;43;28
51258;PMS7003;37327;54.254;18.504;2023-02-15T23:13:55;51;42;25
51258;PMS7003;37327;54.254;18.504;2023-02-15T23:17:02;49;40;24
51258;PMS7003;37327;54.254;18.504;2023-02-15T23:20:13;38;34;22
51258;PMS7003;37327;54.254;18.504;2023-02-15T23:23:25;48;41;26
51258;PMS7003;37327;54.254;18.504;2023-02-15T23:26:37;52;42;25
51258;PMS7003;37327;54.254;18.504;2023-02-15T23:29:44;47;39;25
51258;PMS7003;37327;54.254;18.504;2023-02-15T23:32:52;58;41;23
51258;PMS7003;37327;54.254;18.504;2023-02-15T23:36:02;43;36;23
51258;PMS7003;37327;54.254;18.504;2023-02-15T23:39:16;33;27;14
51258;PMS7003;37327;54.254;18.504;2023-02-15T23:42:37;45;34;20
51258;PMS7003;37327;54.254;18.504;2023-02-15T23:45:44;48;39;23
51258;PMS7003;37327;54.254;18.504;2023-02-15T23:48:51;48;41;25
51258;PMS7003;37327;54.254;18.504;2023-02-15T23:51:59;40;36;23
51258;PMS7003;37327;54.254;18.504;2023-02-15T23:55:35;42;34;21
51258;PMS7003;37327;54.254;18.504;2023-02-15T23:58:45;46;32;19
